sensor_id;sensor_type;location;lat;lon;timestamp;pressure;altitude;pressure_sealevel;temperature;humidity
30897;BME280;64229;52.246;21.054;2023-07-31T00:00:11;99905.47;;;19.68;78.79
30897;BME280;64229;52.246;21.054;2023-07-31T00:02:37;99902.53;;;19.73;78.63
30897;BME280;64229;52.246;21.054;2023-07-31T00:05:03;99906.81;;;19.62;78.91
30897;BME280;64229;52.246;21.054;2023-07-31T00:07:28;99905.72;;;19.54;79.30
30897;BME280;64229;52.246;21.054;2023-07-31T00:09:53;99905.50;;;19.47;79.48
30897;BME280;64229;52.246;21.054;2023-07-31T00:12:19;99904.94;;;19.54;79.05
30897;BME280;64229;52.246;21.054;2023-07-31T00:14:45;99895.66;;;19.43;79.06
30897;BME280;64229;52.246;21.054;2023-07-31T00:17:11;99911.91;;;19.43;79.67
30897;BME280;64229;52.246;21.054;2023-07-31T00:19:36;99908.13;;;19.35;79.83
30897;BME280;64229;52.246;21.054;2023-07-31T00:22:01;99918.38;;;19.29;80.19
30897;BME280;64229;52.246;21.054;2023-07-31T00:24:27;99916.34;;;19.26;80.46
30897;BME280;64229;52.246;21.054;2023-07-31T00:26:52;99909.03;;;19.27;80.01
30897;BME280;64229;52.246;21.054;2023-07-31T00:29:18;99907.56;;;19.29;80.16
30897;BME280;64229;52.246;21.054;2023-07-31T00:31:43;99913.09;;;19.33;80.29
30897;BME280;64229;52.246;21.054;2023-07-31T00:34:09;99906.97;;;19.24;80.79
30897;BME280;64229;52.246;21.054;2023-07-31T00:36:34;99910.72;;;19.31;80.71
30897;BME280;64229;52.246;21.054;2023-07-31T00:38:59;99907.84;;;19.16;81.36
30897;BME280;64229;52.246;21.054;2023-07-31T00:41:25;99906.78;;;19.08;81.77
30897;BME280;64229;52.246;21.054;2023-07-31T00:43:50;99901.66;;;19.15;82.24
30897;BME280;64229;52.246;21.054;2023-07-31T00:46:15;99901.16;;;19.13;82.30
30897;BME280;64229;52.246;21.054;2023-07-31T00:48:41;99898.47;;;19.13;82.18
30897;BME280;64229;52.246;21.054;2023-07-31T00:51:07;99901.88;;;19.22;81.89
30897;BME280;64229;52.246;21.054;2023-07-31T00:53:33;99909.03;;;19.27;81.68
30897;BME280;64229;52.246;21.054;2023-07-31T00:55:58;99899.00;;;19.06;82.56
30897;BME280;64229;52.246;21.054;2023-07-31T00:58:24;99897.59;;;19.00;83.17
30897;BME280;64229;52.246;21.054;2023-07-31T01:00:49;99899.06;;;18.98;82.96
30897;BME280;64229;52.246;21.054;2023-07-31T01:03:16;99892.53;;;18.99;83.01
30897;BME280;64229;52.246;21.054;2023-07-31T01:05:56;99891.28;;;18.96;83.09
30897;BME280;64229;52.246;21.054;2023-07-31T01:11:23;99906.28;;;18.94;83.57
30897;BME280;64229;52.246;21.054;2023-07-31T01:13:51;99909.16;;;18.89;83.50
30897;BME280;64229;52.246;21.054;2023-07-31T01:16:16;99902.84;;;18.85;83.70
30897;BME280;64229;52.246;21.054;2023-07-31T01:18:41;99909.63;;;18.91;83.14
30897;BME280;64229;52.246;21.054;2023-07-31T01:26:39;99920.97;;;18.84;84.19
30897;BME280;64229;52.246;21.054;2023-07-31T01:29:23;99915.47;;;18.72;84.46
30897;BME280;64229;52.246;21.054;2023-07-31T01:31:53;99906.03;;;18.78;84.42
30897;BME280;64229;52.246;21.054;2023-07-31T01:34:21;99910.53;;;18.74;84.81
30897;BME280;64229;52.246;21.054;2023-07-31T01:36:47;99894.22;;;18.62;85.18
30897;BME280;64229;52.246;21.054;2023-07-31T01:39:12;99904.53;;;18.60;85.40
30897;BME280;64229;52.246;21.054;2023-07-31T01:41:38;99907.09;;;18.56;85.35
30897;BME280;64229;52.246;21.054;2023-07-31T01:44:04;99918.22;;;18.63;85.20
30897;BME280;64229;52.246;21.054;2023-07-31T01:46:29;99907.72;;;18.62;85.40
30897;BME280;64229;52.246;21.054;2023-07-31T01:48:54;99914.72;;;18.63;85.61
30897;BME280;64229;52.246;21.054;2023-07-31T01:51:20;99916.28;;;18.64;85.68
30897;BME280;64229;52.246;21.054;2023-07-31T01:53:45;99913.59;;;18.64;85.53
30897;BME280;64229;52.246;21.054;2023-07-31T01:56:10;99916.94;;;18.61;85.96
30897;BME280;64229;52.246;21.054;2023-07-31T01:58:35;99923.44;;;18.60;86.00
30897;BME280;64229;52.246;21.054;2023-07-31T02:01:01;99916.84;;;18.48;86.28
30897;BME280;64229;52.246;21.054;2023-07-31T02:03:26;99924.03;;;18.44;86.93
30897;BME280;64229;52.246;21.054;2023-07-31T02:05:51;99924.69;;;18.41;87.00
30897;BME280;64229;52.246;21.054;2023-07-31T02:08:17;99935.66;;;18.36;87.44
30897;BME280;64229;52.246;21.054;2023-07-31T02:10:42;99928.00;;;18.38;87.46
30897;BME280;64229;52.246;21.054;2023-07-31T02:13:07;99936.78;;;18.35;87.81
30897;BME280;64229;52.246;21.054;2023-07-31T02:15:34;99937.53;;;18.44;87.38
30897;BME280;64229;52.246;21.054;2023-07-31T02:17:59;99932.78;;;18.41;87.06
30897;BME280;64229;52.246;21.054;2023-07-31T02:20:25;99926.50;;;18.58;85.84
30897;BME280;64229;52.246;21.054;2023-07-31T02:22:50;99937.81;;;18.52;86.69
30897;BME280;64229;52.246;21.054;2023-07-31T02:25:16;99938.88;;;18.59;86.17
30897;BME280;64229;52.246;21.054;2023-07-31T02:27:41;99942.56;;;18.55;86.40
30897;BME280;64229;52.246;21.054;2023-07-31T02:30:07;99939.16;;;18.37;87.38
30897;BME280;64229;52.246;21.054;2023-07-31T02:32:32;99943.63;;;18.33;87.73
30897;BME280;64229;52.246;21.054;2023-07-31T02:34:58;99945.88;;;18.31;87.83
30897;BME280;64229;52.246;21.054;2023-07-31T02:37:23;99944.16;;;18.17;88.63
30897;BME280;64229;52.246;21.054;2023-07-31T02:39:48;99949.25;;;18.19;88.73
30897;BME280;64229;52.246;21.054;2023-07-31T02:42:14;99942.09;;;18.14;89.32
30897;BME280;64229;52.246;21.054;2023-07-31T02:44:39;99945.94;;;18.13;88.82
30897;BME280;64229;52.246;21.054;2023-07-31T02:47:05;99948.41;;;18.27;88.94
30897;BME280;64229;52.246;21.054;2023-07-31T02:49:30;99956.59;;;18.10;89.50
30897;BME280;64229;52.246;21.054;2023-07-31T02:51:55;99955.94;;;18.13;89.59
30897;BME280;64229;52.246;21.054;2023-07-31T02:54:21;99939.75;;;18.04;90.03
30897;BME280;64229;52.246;21.054;2023-07-31T02:56:47;99935.59;;;18.07;90.05
30897;BME280;64229;52.246;21.054;2023-07-31T02:59:12;99942.09;;;18.14;89.43
30897;BME280;64229;52.246;21.054;2023-07-31T03:01:38;99923.09;;;17.93;90.17
30897;BME280;64229;52.246;21.054;2023-07-31T03:04:03;99948.38;;;17.98;90.53
30897;BME280;64229;52.246;21.054;2023-07-31T03:06:29;99948.50;;;18.01;90.63
30897;BME280;64229;52.246;21.054;2023-07-31T03:08:54;99948.31;;;18.06;90.01
30897;BME280;64229;52.246;21.054;2023-07-31T03:11:19;99943.91;;;18.02;90.16
30897;BME280;64229;52.246;21.054;2023-07-31T03:13:44;99922.19;;;17.89;90.37
30897;BME280;64229;52.246;21.054;2023-07-31T03:16:10;99931.31;;;18.06;89.72
30897;BME280;64229;52.246;21.054;2023-07-31T03:18:35;99940.22;;;18.06;89.33
30897;BME280;64229;52.246;21.054;2023-07-31T03:21:00;99941.81;;;18.07;88.69
30897;BME280;64229;52.246;21.054;2023-07-31T03:23:25;99949.94;;;17.99;89.55
30897;BME280;64229;52.246;21.054;2023-07-31T03:25:58;99943.44;;;18.00;89.33
30897;BME280;64229;52.246;21.054;2023-07-31T03:28:24;99942.81;;;17.94;89.65
30897;BME280;64229;52.246;21.054;2023-07-31T03:30:49;99951.69;;;17.95;89.65
30897;BME280;64229;52.246;21.054;2023-07-31T03:33:15;99951.38;;;17.96;89.22
30897;BME280;64229;52.246;21.054;2023-07-31T03:35:40;99951.22;;;17.92;89.35
30897;BME280;64229;52.246;21.054;2023-07-31T03:38:05;99954.38;;;18.03;88.81
30897;BME280;64229;52.246;21.054;2023-07-31T03:40:30;99961.31;;;18.21;86.86
30897;BME280;64229;52.246;21.054;2023-07-31T03:42:56;99972.78;;;18.10;87.72
30897;BME280;64229;52.246;21.054;2023-07-31T03:45:21;99960.69;;;18.07;87.75
30897;BME280;64229;52.246;21.054;2023-07-31T03:47:46;99958.66;;;18.04;87.84
30897;BME280;64229;52.246;21.054;2023-07-31T03:50:11;99967.66;;;18.17;86.97
30897;BME280;64229;52.246;21.054;2023-07-31T03:52:37;99970.34;;;18.26;86.23
30897;BME280;64229;52.246;21.054;2023-07-31T03:55:02;99974.84;;;18.13;86.87
30897;BME280;64229;52.246;21.054;2023-07-31T03:57:28;99981.69;;;18.10;87.46
30897;BME280;64229;52.246;21.054;2023-07-31T03:59:53;99982.31;;;18.07;87.47
30897;BME280;64229;52.246;21.054;2023-07-31T04:02:18;99990.41;;;18.07;87.52
30897;BME280;64229;52.246;21.054;2023-07-31T04:04:44;99985.16;;;18.19;87.09
30897;BME280;64229;52.246;21.054;2023-07-31T04:07:09;99991.19;;;18.16;87.32
30897;BME280;64229;52.246;21.054;2023-07-31T04:09:34;99980.53;;;18.20;86.76
30897;BME280;64229;52.246;21.054;2023-07-31T04:11:59;99986.44;;;18.13;87.31
30897;BME280;64229;52.246;21.054;2023-07-31T04:14:25;99991.47;;;18.32;85.77
30897;BME280;64229;52.246;21.054;2023-07-31T04:16:50;100002.63;;;18.22;86.43
30897;BME280;64229;52.246;21.054;2023-07-31T04:19:15;99991.84;;;18.13;86.58
30897;BME280;64229;52.246;21.054;2023-07-31T04:21:42;99994.41;;;18.10;86.73
30897;BME280;64229;52.246;21.054;2023-07-31T04:24:07;99987.41;;;18.09;86.62
30897;BME280;64229;52.246;21.054;2023-07-31T04:26:32;99987.88;;;18.11;86.39
30897;BME280;64229;52.246;21.054;2023-07-31T04:28:58;100000.13;;;18.00;86.79
30897;BME280;64229;52.246;21.054;2023-07-31T04:31:23;100000.59;;;18.10;86.34
30897;BME280;64229;52.246;21.054;2023-07-31T04:33:48;99991.72;;;17.92;87.36
30897;BME280;64229;52.246;21.054;2023-07-31T04:36:13;100001.13;;;17.86;87.87
30897;BME280;64229;52.246;21.054;2023-07-31T04:38:39;100006.66;;;17.90;87.75
30897;BME280;64229;52.246;21.054;2023-07-31T04:41:06;100016.47;;;18.03;87.16
30897;BME280;64229;52.246;21.054;2023-07-31T04:43:31;100024.59;;;17.95;87.23
30897;BME280;64229;52.246;21.054;2023-07-31T04:45:56;100010.94;;;17.91;87.72
30897;BME280;64229;52.246;21.054;2023-07-31T04:48:23;100019.19;;;17.95;87.41
30897;BME280;64229;52.246;21.054;2023-07-31T04:50:48;100015.88;;;17.98;87.08
30897;BME280;64229;52.246;21.054;2023-07-31T04:53:13;100016.16;;;17.96;87.41
30897;BME280;64229;52.246;21.054;2023-07-31T04:55:39;100010.47;;;17.98;87.37
30897;BME280;64229;52.246;21.054;2023-07-31T04:58:04;100010.78;;;17.96;87.64
30897;BME280;64229;52.246;21.054;2023-07-31T05:00:30;100011.25;;;17.98;87.62
30897;BME280;64229;52.246;21.054;2023-07-31T05:02:55;100011.72;;;18.00;87.09
30897;BME280;64229;52.246;21.054;2023-07-31T05:05:20;100007.13;;;18.01;86.77
30897;BME280;64229;52.246;21.054;2023-07-31T05:07:45;100010.75;;;18.13;86.16
30897;BME280;64229;52.246;21.054;2023-07-31T05:10:11;100017.06;;;18.17;85.75
30897;BME280;64229;52.246;21.054;2023-07-31T05:12:36;100021.22;;;18.15;85.87
30897;BME280;64229;52.246;21.054;2023-07-31T05:15:01;100023.13;;;18.14;85.94
30897;BME280;64229;52.246;21.054;2023-07-31T05:17:27;100023.75;;;18.20;85.55
30897;BME280;64229;52.246;21.054;2023-07-31T05:19:52;100020.88;;;18.25;84.88
30897;BME280;64229;52.246;21.054;2023-07-31T05:22:17;100024.22;;;18.22;85.47
30897;BME280;64229;52.246;21.054;2023-07-31T05:24:42;100026.94;;;18.22;85.58
30897;BME280;64229;52.246;21.054;2023-07-31T05:27:08;100025.94;;;18.35;84.67
30897;BME280;64229;52.246;21.054;2023-07-31T05:29:34;100026.41;;;18.29;84.61
30897;BME280;64229;52.246;21.054;2023-07-31T05:32:00;100024.50;;;18.38;84.39
30897;BME280;64229;52.246;21.054;2023-07-31T05:34:25;100029.41;;;18.44;83.87
30897;BME280;64229;52.246;21.054;2023-07-31T05:36:50;100032.91;;;18.45;84.06
30897;BME280;64229;52.246;21.054;2023-07-31T05:39:15;100041.50;;;18.38;84.64
30897;BME280;64229;52.246;21.054;2023-07-31T05:41:41;100020.41;;;18.32;84.77
30897;BME280;64229;52.246;21.054;2023-07-31T05:44:06;100030.19;;;18.45;84.60
30897;BME280;64229;52.246;21.054;2023-07-31T05:46:31;100048.13;;;18.49;84.74
30897;BME280;64229;52.246;21.054;2023-07-31T05:48:57;100047.94;;;18.63;84.20
30897;BME280;64229;52.246;21.054;2023-07-31T05:51:22;100041.13;;;18.66;83.51
30897;BME280;64229;52.246;21.054;2023-07-31T05:53:47;100043.50;;;18.59;83.64
30897;BME280;64229;52.246;21.054;2023-07-31T05:56:12;100054.16;;;18.55;83.94
30897;BME280;64229;52.246;21.054;2023-07-31T05:58:38;100054.16;;;18.55;84.03
30897;BME280;64229;52.246;21.054;2023-07-31T06:01:03;100056.06;;;18.55;84.43
30897;BME280;64229;52.246;21.054;2023-07-31T06:03:28;100057.81;;;18.59;84.34
30897;BME280;64229;52.246;21.054;2023-07-31T06:05:54;100071.38;;;18.50;84.69
30897;BME280;64229;52.246;21.054;2023-07-31T06:08:19;100057.19;;;18.54;85.41
30897;BME280;64229;52.246;21.054;2023-07-31T06:10:44;100064.97;;;18.72;84.74
30897;BME280;64229;52.246;21.054;2023-07-31T06:13:09;100067.47;;;18.77;84.63
30897;BME280;64229;52.246;21.054;2023-07-31T06:15:35;100068.88;;;18.84;83.37
30897;BME280;64229;52.246;21.054;2023-07-31T06:18:00;100072.22;;;18.81;83.75
30897;BME280;64229;52.246;21.054;2023-07-31T06:20:27;100076.84;;;18.80;84.05
30897;BME280;64229;52.246;21.054;2023-07-31T06:22:52;100089.75;;;18.74;85.20
30897;BME280;64229;52.246;21.054;2023-07-31T06:25:17;100068.22;;;18.87;83.64
30897;BME280;64229;52.246;21.054;2023-07-31T06:27:43;100074.28;;;18.84;83.59
30897;BME280;64229;52.246;21.054;2023-07-31T06:30:08;100075.56;;;18.77;83.20
30897;BME280;64229;52.246;21.054;2023-07-31T06:32:34;100076.72;;;18.68;84.06
30897;BME280;64229;52.246;21.054;2023-07-31T06:34:59;100075.34;;;18.91;82.52
30897;BME280;64229;52.246;21.054;2023-07-31T06:37:24;100066.34;;;18.78;83.20
30897;BME280;64229;52.246;21.054;2023-07-31T06:39:49;100076.41;;;18.69;84.36
30897;BME280;64229;52.246;21.054;2023-07-31T06:42:15;100073.69;;;18.61;84.71
30897;BME280;64229;52.246;21.054;2023-07-31T06:44:40;100075.94;;;18.59;84.59
30897;BME280;64229;52.246;21.054;2023-07-31T06:47:05;100078.69;;;18.41;85.77
30897;BME280;64229;52.246;21.054;2023-07-31T06:49:31;100092.38;;;18.28;87.14
30897;BME280;64229;52.246;21.054;2023-07-31T06:51:56;100086.22;;;18.18;87.83
30897;BME280;64229;52.246;21.054;2023-07-31T06:54:21;100083.66;;;18.22;87.84
30897;BME280;64229;52.246;21.054;2023-07-31T06:56:47;100089.72;;;18.19;87.88
30897;BME280;64229;52.246;21.054;2023-07-31T06:59:12;100089.84;;;18.40;87.13
30897;BME280;64229;52.246;21.054;2023-07-31T07:01:37;100090.56;;;18.49;86.44
30897;BME280;64229;52.246;21.054;2023-07-31T07:04:02;100088.72;;;18.41;86.89
30897;BME280;64229;52.246;21.054;2023-07-31T07:06:28;100090.91;;;18.39;86.96
30897;BME280;64229;52.246;21.054;2023-07-31T07:08:53;100093.94;;;18.37;86.90
30897;BME280;64229;52.246;21.054;2023-07-31T07:11:18;100089.66;;;18.36;86.96
30897;BME280;64229;52.246;21.054;2023-07-31T07:13:44;100081.56;;;18.28;87.58
30897;BME280;64229;52.246;21.054;2023-07-31T07:16:09;100084.91;;;18.33;87.60
30897;BME280;64229;52.246;21.054;2023-07-31T07:18:35;100091.53;;;18.53;85.62
30897;BME280;64229;52.246;21.054;2023-07-31T07:21:00;100083.88;;;18.64;84.77
30897;BME280;64229;52.246;21.054;2023-07-31T07:23:27;100093.22;;;18.84;84.41
30897;BME280;64229;52.246;21.054;2023-07-31T07:25:52;100092.34;;;19.00;83.22
30897;BME280;64229;52.246;21.054;2023-07-31T07:28:18;100096.13;;;19.08;83.37
30897;BME280;64229;52.246;21.054;2023-07-31T07:30:43;100091.78;;;19.16;83.45
30897;BME280;64229;52.246;21.054;2023-07-31T07:33:08;100071.16;;;19.32;82.29
30897;BME280;64229;52.246;21.054;2023-07-31T07:35:34;100085.97;;;19.97;78.76
30897;BME280;64229;52.246;21.054;2023-07-31T07:37:59;100076.13;;;20.46;76.83
30897;BME280;64229;52.246;21.054;2023-07-31T07:40:25;100086.47;;;21.14;74.64
30897;BME280;64229;52.246;21.054;2023-07-31T07:42:51;100092.41;;;22.09;70.93
30897;BME280;64229;52.246;21.054;2023-07-31T07:45:16;100084.78;;;22.58;66.91
30897;BME280;64229;52.246;21.054;2023-07-31T07:47:41;100081.28;;;22.58;65.96
30897;BME280;64229;52.246;21.054;2023-07-31T07:50:07;100083.97;;;22.42;66.90
30897;BME280;64229;52.246;21.054;2023-07-31T07:52:33;100081.34;;;22.45;67.37
30897;BME280;64229;52.246;21.054;2023-07-31T07:54:58;100085.13;;;22.57;66.53
30897;BME280;64229;52.246;21.054;2023-07-31T07:57:23;100085.25;;;22.92;64.79
30897;BME280;64229;52.246;21.054;2023-07-31T07:59:48;100094.38;;;22.99;63.77
30897;BME280;64229;52.246;21.054;2023-07-31T08:02:14;100091.56;;;22.96;63.78
30897;BME280;64229;52.246;21.054;2023-07-31T08:04:39;100092.69;;;22.95;63.96
30897;BME280;64229;52.246;21.054;2023-07-31T08:07:04;100088.84;;;23.12;63.76
30897;BME280;64229;52.246;21.054;2023-07-31T08:09:30;100095.66;;;23.72;59.72
30897;BME280;64229;52.246;21.054;2023-07-31T08:11:55;100087.03;;;23.70;60.10
30897;BME280;64229;52.246;21.054;2023-07-31T08:14:22;100085.81;;;23.67;60.04
30897;BME280;64229;52.246;21.054;2023-07-31T08:16:48;100088.34;;;23.76;60.24
30897;BME280;64229;52.246;21.054;2023-07-31T08:19:13;100077.53;;;24.22;59.36
30897;BME280;64229;52.246;21.054;2023-07-31T08:21:38;100074.63;;;25.26;56.32
30897;BME280;64229;52.246;21.054;2023-07-31T08:24:04;100081.19;;;26.11;52.82
30897;BME280;64229;52.246;21.054;2023-07-31T08:26:29;100073.31;;;26.88;49.93
30897;BME280;64229;52.246;21.054;2023-07-31T08:28:54;100079.78;;;27.13;49.18
30897;BME280;64229;52.246;21.054;2023-07-31T08:31:19;100086.25;;;27.49;48.14
30897;BME280;64229;52.246;21.054;2023-07-31T08:33:45;100083.00;;;28.16;45.92
30897;BME280;64229;52.246;21.054;2023-07-31T08:36:10;100081.91;;;29.21;43.75
30897;BME280;64229;52.246;21.054;2023-07-31T08:38:35;100083.38;;;29.64;43.44
30897;BME280;64229;52.246;21.054;2023-07-31T08:41:03;100085.56;;;30.02;41.49
30897;BME280;64229;52.246;21.054;2023-07-31T08:43:29;100081.34;;;30.52;38.55
30897;BME280;64229;52.246;21.054;2023-07-31T08:45:55;100081.22;;;30.11;39.74
30897;BME280;64229;52.246;21.054;2023-07-31T08:48:23;100079.59;;;30.17;40.71
30897;BME280;64229;52.246;21.054;2023-07-31T08:50:49;100077.78;;;30.56;39.60
30897;BME280;64229;52.246;21.054;2023-07-31T08:53:14;100077.78;;;31.42;36.43
30897;BME280;64229;52.246;21.054;2023-07-31T08:55:40;100076.38;;;31.94;35.41
30897;BME280;64229;52.246;21.054;2023-07-31T08:58:05;100087.22;;;31.78;34.97
30897;BME280;64229;52.246;21.054;2023-07-31T09:00:32;100084.81;;;31.46;36.63
30897;BME280;64229;52.246;21.054;2023-07-31T09:03:00;100086.09;;;31.76;36.06
30897;BME280;64229;52.246;21.054;2023-07-31T09:05:29;100090.31;;;32.14;33.48
30897;BME280;64229;52.246;21.054;2023-07-31T09:07:55;100069.25;;;32.24;32.78
30897;BME280;64229;52.246;21.054;2023-07-31T09:10:21;100081.69;;;31.82;34.05
30897;BME280;64229;52.246;21.054;2023-07-31T09:12:47;100073.91;;;31.35;35.19
30897;BME280;64229;52.246;21.054;2023-07-31T09:15:13;100083.22;;;31.11;36.08
30897;BME280;64229;52.246;21.054;2023-07-31T09:17:39;100083.84;;;31.29;35.24
30897;BME280;64229;52.246;21.054;2023-07-31T09:20:21;100079.59;;;31.89;32.50
30897;BME280;64229;52.246;21.054;2023-07-31T09:22:47;100075.66;;;31.56;33.83
30897;BME280;64229;52.246;21.054;2023-07-31T09:25:15;100086.03;;;31.45;33.67
30897;BME280;64229;52.246;21.054;2023-07-31T09:30:19;100071.34;;;30.73;34.66
30897;BME280;64229;52.246;21.054;2023-07-31T09:32:47;100074.88;;;30.18;35.85
30897;BME280;64229;52.246;21.054;2023-07-31T09:37:53;100080.03;;;30.12;36.06
30897;BME280;64229;52.246;21.054;2023-07-31T09:40:32;100074.97;;;29.96;35.87
30897;BME280;64229;52.246;21.054;2023-07-31T09:43:00;100074.47;;;30.23;35.83
30897;BME280;64229;52.246;21.054;2023-07-31T09:45:27;100076.41;;;30.26;35.24
30897;BME280;64229;52.246;21.054;2023-07-31T09:47:53;100074.91;;;30.14;35.75
30897;BME280;64229;52.246;21.054;2023-07-31T09:50:21;100090.50;;;29.51;36.68
30897;BME280;64229;52.246;21.054;2023-07-31T09:52:47;100081.94;;;28.96;36.95
30897;BME280;64229;52.246;21.054;2023-07-31T09:55:12;100077.59;;;29.09;36.65
30897;BME280;64229;52.246;21.054;2023-07-31T09:57:43;100067.75;;;29.29;36.72
30897;BME280;64229;52.246;21.054;2023-07-31T10:00:10;100074.69;;;29.80;36.68
30897;BME280;64229;52.246;21.054;2023-07-31T10:02:37;100077.91;;;29.43;35.81
30897;BME280;64229;52.246;21.054;2023-07-31T10:05:03;100069.28;;;29.34;36.60
30897;BME280;64229;52.246;21.054;2023-07-31T10:07:30;100074.44;;;29.28;36.20
30897;BME280;64229;52.246;21.054;2023-07-31T10:09:58;100072.91;;;28.99;36.93
30897;BME280;64229;52.246;21.054;2023-07-31T10:12:26;100063.09;;;28.51;38.39
30897;BME280;64229;52.246;21.054;2023-07-31T10:14:55;100067.81;;;28.40;38.27
30897;BME280;64229;52.246;21.054;2023-07-31T10:17:22;100072.09;;;28.48;37.33
30897;BME280;64229;52.246;21.054;2023-07-31T10:19:49;100068.97;;;28.36;37.40
30897;BME280;64229;52.246;21.054;2023-07-31T10:22:14;100045.78;;;28.22;35.99
30897;BME280;64229;52.246;21.054;2023-07-31T10:24:45;100046.13;;;28.03;36.18
30897;BME280;64229;52.246;21.054;2023-07-31T10:27:10;100065.66;;;27.77;35.99
30897;BME280;64229;52.246;21.054;2023-07-31T10:29:37;100068.53;;;27.29;37.62
30897;BME280;64229;52.246;21.054;2023-07-31T10:32:04;100054.88;;;26.81;39.00
30897;BME280;64229;52.246;21.054;2023-07-31T10:34:33;100064.44;;;26.57;39.27
30897;BME280;64229;52.246;21.054;2023-07-31T10:37:25;100055.09;;;26.17;39.91
30897;BME280;64229;52.246;21.054;2023-07-31T10:40:02;100054.28;;;25.83;40.32
30897;BME280;64229;52.246;21.054;2023-07-31T10:42:38;100049.63;;;25.54;40.32
30897;BME280;64229;52.246;21.054;2023-07-31T10:45:08;100055.91;;;25.28;41.18
30897;BME280;64229;52.246;21.054;2023-07-31T10:47:45;100059.81;;;25.27;41.53
30897;BME280;64229;52.246;21.054;2023-07-31T10:50:17;100059.38;;;25.25;41.82
30897;BME280;64229;52.246;21.054;2023-07-31T10:53:04;100054.53;;;25.11;41.78
30897;BME280;64229;52.246;21.054;2023-07-31T10:55:40;100056.56;;;24.95;41.31
30897;BME280;64229;52.246;21.054;2023-07-31T10:58:09;100056.66;;;24.75;41.86
30897;BME280;64229;52.246;21.054;2023-07-31T11:00:43;100058.94;;;24.70;42.26
30897;BME280;64229;52.246;21.054;2023-07-31T11:03:18;100057.44;;;24.76;42.41
30897;BME280;64229;52.246;21.054;2023-07-31T11:05:50;100062.38;;;24.67;42.45
30897;BME280;64229;52.246;21.054;2023-07-31T11:08:27;100053.22;;;24.56;42.48
30897;BME280;64229;52.246;21.054;2023-07-31T11:13:31;100057.03;;;24.51;40.15
30897;BME280;64229;52.246;21.054;2023-07-31T11:15:57;100057.78;;;24.29;40.69
30897;BME280;64229;52.246;21.054;2023-07-31T11:18:22;100057.50;;;24.34;40.61
30897;BME280;64229;52.246;21.054;2023-07-31T11:20:47;100050.66;;;24.43;40.74
30897;BME280;64229;52.246;21.054;2023-07-31T11:23:16;100057.97;;;24.59;40.42
30897;BME280;64229;52.246;21.054;2023-07-31T11:25:41;100043.72;;;24.69;40.80
30897;BME280;64229;52.246;21.054;2023-07-31T11:28:09;100037.00;;;24.89;39.70
30897;BME280;64229;52.246;21.054;2023-07-31T11:30:35;100050.69;;;24.93;39.12
30897;BME280;64229;52.246;21.054;2023-07-31T11:33:01;100049.63;;;24.74;38.87
30897;BME280;64229;52.246;21.054;2023-07-31T11:35:29;100048.25;;;24.61;39.60
30897;BME280;64229;52.246;21.054;2023-07-31T11:37:54;100045.69;;;24.72;39.60
30897;BME280;64229;52.246;21.054;2023-07-31T11:40:19;100049.69;;;24.78;40.34
30897;BME280;64229;52.246;21.054;2023-07-31T11:42:45;100049.34;;;24.79;40.63
30897;BME280;64229;52.246;21.054;2023-07-31T11:45:10;100046.91;;;24.74;41.12
30897;BME280;64229;52.246;21.054;2023-07-31T11:47:37;100053.94;;;24.75;39.55
30897;BME280;64229;52.246;21.054;2023-07-31T11:50:04;100047.22;;;24.69;39.46
30897;BME280;64229;52.246;21.054;2023-07-31T11:52:36;100040.47;;;24.63;39.71
30897;BME280;64229;52.246;21.054;2023-07-31T11:55:03;100035.88;;;24.44;40.59
30897;BME280;64229;52.246;21.054;2023-07-31T11:57:29;100029.75;;;24.51;40.58
30897;BME280;64229;52.246;21.054;2023-07-31T11:59:55;100038.06;;;24.58;39.48
30897;BME280;64229;52.246;21.054;2023-07-31T12:02:20;100033.16;;;24.44;40.49
30897;BME280;64229;52.246;21.054;2023-07-31T12:04:47;100042.91;;;24.45;39.99
30897;BME280;64229;52.246;21.054;2023-07-31T12:07:13;100029.44;;;24.33;40.19
30897;BME280;64229;52.246;21.054;2023-07-31T12:09:38;100039.00;;;24.23;40.88
30897;BME280;64229;52.246;21.054;2023-07-31T12:12:08;100035.28;;;24.12;41.36
30897;BME280;64229;52.246;21.054;2023-07-31T12:14:34;100037.00;;;24.20;41.12
30897;BME280;64229;52.246;21.054;2023-07-31T12:17:05;100026.88;;;24.21;41.47
30897;BME280;64229;52.246;21.054;2023-07-31T12:19:32;100032.69;;;24.19;41.23
30897;BME280;64229;52.246;21.054;2023-07-31T12:21:59;100027.97;;;24.16;41.55
30897;BME280;64229;52.246;21.054;2023-07-31T12:24:26;100025.22;;;24.36;41.44
30897;BME280;64229;52.246;21.054;2023-07-31T12:26:51;100023.38;;;24.20;41.58
30897;BME280;64229;52.246;21.054;2023-07-31T12:29:17;100020.88;;;24.12;42.39
30897;BME280;64229;52.246;21.054;2023-07-31T12:31:43;100009.97;;;24.12;43.24
30897;BME280;64229;52.246;21.054;2023-07-31T12:34:19;100013.13;;;24.14;42.73
30897;BME280;64229;52.246;21.054;2023-07-31T12:36:46;100014.44;;;24.01;43.50
30897;BME280;64229;52.246;21.054;2023-07-31T12:39:14;100005.88;;;24.02;43.25
30897;BME280;64229;52.246;21.054;2023-07-31T12:41:39;100006.06;;;23.90;43.95
30897;BME280;64229;52.246;21.054;2023-07-31T12:44:04;100005.00;;;24.17;44.65
30897;BME280;64229;52.246;21.054;2023-07-31T12:46:30;100007.59;;;24.10;44.39
30897;BME280;64229;52.246;21.054;2023-07-31T12:48:55;100006.56;;;23.95;44.50
30897;BME280;64229;52.246;21.054;2023-07-31T12:51:20;100004.84;;;23.87;44.50
30897;BME280;64229;52.246;21.054;2023-07-31T12:53:46;99996.97;;;23.82;44.19